sensor_id;sensor_type;location;lat;lon;timestamp;P1;durP1;ratioP1;P2;durP2;ratioP2
37645;SDS011;23489;49.600;6.138;2023-09-18T00:00:42;11.20;;;4.35;;
37645;SDS011;23489;49.600;6.138;2023-09-18T00:03:11;10.85;;;4.53;;
37645;SDS011;23489;49.600;6.138;2023-09-18T00:05:37;14.03;;;4.80;;
37645;SDS011;23489;49.600;6.138;2023-09-18T00:08:03;10.60;;;4.30;;
37645;SDS011;23489;49.600;6.138;2023-09-18T00:10:28;12.27;;;4.60;;
37645;SDS011;23489;49.600;6.138;2023-09-18T00:12:55;12.70;;;4.60;;
37645;SDS011;23489;49.600;6.138;2023-09-18T00:15:21;16.90;;;5.22;;
37645;SDS011;23489;49.600;6.138;2023-09-18T00:17:47;19.25;;;5.72;;
37645;SDS011;23489;49.600;6.138;2023-09-18T00:20:13;11.23;;;5.50;;
37645;SDS011;23489;49.600;6.138;2023-09-18T00:22:39;12.10;;;6.47;;
37645;SDS011;23489;49.600;6.138;2023-09-18T00:25:04;17.23;;;5.90;;
37645;SDS011;23489;49.600;6.138;2023-09-18T00:27:30;18.08;;;6.32;;
37645;SDS011;23489;49.600;6.138;2023-09-18T00:29:57;18.92;;;6.43;;
37645;SDS011;23489;49.600;6.138;2023-09-18T00:32:23;13.10;;;5.65;;
37645;SDS011;23489;49.600;6.138;2023-09-18T00:34:49;12.85;;;4.97;;
37645;SDS011;23489;49.600;6.138;2023-09-18T00:37:15;15.63;;;5.07;;
37645;SDS011;23489;49.600;6.138;2023-09-18T00:39:41;17.77;;;4.83;;
37645;SDS011;23489;49.600;6.138;2023-09-18T00:42:08;11.57;;;4.20;;
37645;SDS011;23489;49.600;6.138;2023-09-18T00:44:39;10.75;;;3.38;;
37645;SDS011;23489;49.600;6.138;2023-09-18T00:47:08;11.15;;;3.92;;
37645;SDS011;23489;49.600;6.138;2023-09-18T00:49:34;12.33;;;3.90;;
37645;SDS011;23489;49.600;6.138;2023-09-18T00:52:02;11.37;;;3.40;;
37645;SDS011;23489;49.600;6.138;2023-09-18T00:54:28;11.75;;;3.85;;
37645;SDS011;23489;49.600;6.138;2023-09-18T00:56:55;10.98;;;4.10;;
37645;SDS011;23489;49.600;6.138;2023-09-18T00:59:21;13.68;;;4.57;;
37645;SDS011;23489;49.600;6.138;2023-09-18T01:01:47;11.10;;;3.97;;
37645;SDS011;23489;49.600;6.138;2023-09-18T01:04:15;16.00;;;4.60;;
37645;SDS011;23489;49.600;6.138;2023-09-18T01:06:42;15.87;;;4.43;;
37645;SDS011;23489;49.600;6.138;2023-09-18T01:09:09;12.43;;;4.10;;
37645;SDS011;23489;49.600;6.138;2023-09-18T01:14:25;13.55;;;3.88;;
37645;SDS011;23489;49.600;6.138;2023-09-18T01:17:00;11.95;;;3.83;;
37645;SDS011;23489;49.600;6.138;2023-09-18T01:19:40;10.65;;;3.72;;
37645;SDS011;23489;49.600;6.138;2023-09-18T01:22:08;11.23;;;3.90;;
37645;SDS011;23489;49.600;6.138;2023-09-18T01:24:35;14.60;;;4.15;;
37645;SDS011;23489;49.600;6.138;2023-09-18T01:27:02;10.88;;;4.00;;
37645;SDS011;23489;49.600;6.138;2023-09-18T01:29:29;9.77;;;3.90;;
37645;SDS011;23489;49.600;6.138;2023-09-18T01:31:55;10.50;;;3.85;;
37645;SDS011;23489;49.600;6.138;2023-09-18T01:34:23;9.82;;;3.92;;
37645;SDS011;23489;49.600;6.138;2023-09-18T01:36:53;11.30;;;4.10;;
37645;SDS011;23489;49.600;6.138;2023-09-18T01:39:22;11.98;;;3.80;;
37645;SDS011;23489;49.600;6.138;2023-09-18T01:41:48;8.77;;;3.73;;
37645;SDS011;23489;49.600;6.138;2023-09-18T01:44:15;14.48;;;4.47;;
37645;SDS011;23489;49.600;6.138;2023-09-18T01:46:41;10.30;;;3.85;;
37645;SDS011;23489;49.600;6.138;2023-09-18T01:49:09;9.23;;;3.63;;
37645;SDS011;23489;49.600;6.138;2023-09-18T01:51:34;9.43;;;3.92;;
37645;SDS011;23489;49.600;6.138;2023-09-18T01:54:00;9.85;;;3.60;;
37645;SDS011;23489;49.600;6.138;2023-09-18T01:56:26;10.37;;;3.73;;
37645;SDS011;23489;49.600;6.138;2023-09-18T01:58:51;11.17;;;4.50;;
37645;SDS011;23489;49.600;6.138;2023-09-18T02:01:17;10.88;;;4.30;;
37645;SDS011;23489;49.600;6.138;2023-09-18T02:03:43;10.85;;;4.38;;
37645;SDS011;23489;49.600;6.138;2023-09-18T02:06:08;10.18;;;3.95;;
37645;SDS011;23489;49.600;6.138;2023-09-18T02:08:34;11.30;;;4.20;;
37645;SDS011;23489;49.600;6.138;2023-09-18T02:11:00;10.80;;;4.40;;
37645;SDS011;23489;49.600;6.138;2023-09-18T02:13:26;11.53;;;4.40;;
37645;SDS011;23489;49.600;6.138;2023-09-18T02:15:51;9.37;;;4.07;;
37645;SDS011;23489;49.600;6.138;2023-09-18T02:18:17;9.07;;;4.00;;
37645;SDS011;23489;49.600;6.138;2023-09-18T02:20:44;10.88;;;4.10;;
37645;SDS011;23489;49.600;6.138;2023-09-18T02:23:12;9.05;;;4.03;;
37645;SDS011;23489;49.600;6.138;2023-09-18T02:25:38;11.02;;;4.15;;
37645;SDS011;23489;49.600;6.138;2023-09-18T02:28:05;7.82;;;3.70;;
37645;SDS011;23489;49.600;6.138;2023-09-18T02:30:31;11.82;;;3.90;;
37645;SDS011;23489;49.600;6.138;2023-09-18T02:32:57;10.47;;;3.70;;
37645;SDS011;23489;49.600;6.138;2023-09-18T02:35:23;8.13;;;3.28;;
37645;SDS011;23489;49.600;6.138;2023-09-18T02:37:48;11.23;;;3.95;;
37645;SDS011;23489;49.600;6.138;2023-09-18T02:40:14;7.93;;;3.53;;
37645;SDS011;23489;49.600;6.138;2023-09-18T02:42:40;10.93;;;3.80;;
37645;SDS011;23489;49.600;6.138;2023-09-18T02:45:05;8.82;;;3.92;;
37645;SDS011;23489;49.600;6.138;2023-09-18T02:47:33;11.52;;;3.95;;
37645;SDS011;23489;49.600;6.138;2023-09-18T02:49:59;9.50;;;3.90;;
37645;SDS011;23489;49.600;6.138;2023-09-18T02:52:24;9.30;;;4.17;;
37645;SDS011;23489;49.600;6.138;2023-09-18T02:54:50;10.20;;;4.07;;
37645;SDS011;23489;49.600;6.138;2023-09-18T02:57:16;9.73;;;3.90;;
37645;SDS011;23489;49.600;6.138;2023-09-18T02:59:41;12.30;;;3.90;;
37645;SDS011;23489;49.600;6.138;2023-09-18T03:02:07;9.10;;;4.32;;
37645;SDS011;23489;49.600;6.138;2023-09-18T03:04:33;9.77;;;3.80;;
37645;SDS011;23489;49.600;6.138;2023-09-18T03:06:59;9.30;;;3.97;;
37645;SDS011;23489;49.600;6.138;2023-09-18T03:09:25;8.87;;;4.00;;
37645;SDS011;23489;49.600;6.138;2023-09-18T03:11:51;9.95;;;3.80;;
37645;SDS011;23489;49.600;6.138;2023-09-18T03:14:16;9.40;;;4.05;;
37645;SDS011;23489;49.600;6.138;2023-09-18T03:16:42;10.80;;;4.03;;
37645;SDS011;23489;49.600;6.138;2023-09-18T03:19:08;9.63;;;3.70;;
37645;SDS011;23489;49.600;6.138;2023-09-18T03:21:34;10.23;;;3.75;;
37645;SDS011;23489;49.600;6.138;2023-09-18T03:24:00;7.50;;;3.22;;
37645;SDS011;23489;49.600;6.138;2023-09-18T03:26:26;7.75;;;3.33;;
37645;SDS011;23489;49.600;6.138;2023-09-18T03:28:52;8.77;;;3.37;;
37645;SDS011;23489;49.600;6.138;2023-09-18T03:31:18;8.18;;;3.47;;
37645;SDS011;23489;49.600;6.138;2023-09-18T03:33:44;9.05;;;4.10;;
37645;SDS011;23489;49.600;6.138;2023-09-18T03:36:09;8.13;;;3.60;;
37645;SDS011;23489;49.600;6.138;2023-09-18T03:38:37;8.40;;;3.90;;
37645;SDS011;23489;49.600;6.138;2023-09-18T03:41:03;7.47;;;3.25;;
37645;SDS011;23489;49.600;6.138;2023-09-18T03:43:28;9.20;;;3.42;;
37645;SDS011;23489;49.600;6.138;2023-09-18T03:45:54;6.40;;;3.10;;
37645;SDS011;23489;49.600;6.138;2023-09-18T03:48:21;8.55;;;3.35;;
37645;SDS011;23489;49.600;6.138;2023-09-18T03:50:47;8.77;;;3.42;;
37645;SDS011;23489;49.600;6.138;2023-09-18T03:53:13;9.10;;;3.55;;
37645;SDS011;23489;49.600;6.138;2023-09-18T03:55:39;12.50;;;3.80;;
37645;SDS011;23489;49.600;6.138;2023-09-18T03:58:04;9.10;;;3.60;;
37645;SDS011;23489;49.600;6.138;2023-09-18T04:00:30;8.25;;;4.07;;
37645;SDS011;23489;49.600;6.138;2023-09-18T04:02:56;10.17;;;4.00;;
37645;SDS011;23489;49.600;6.138;2023-09-18T04:05:22;8.63;;;3.95;;
37645;SDS011;23489;49.600;6.138;2023-09-18T04:07:47;7.28;;;3.47;;
37645;SDS011;23489;49.600;6.138;2023-09-18T04:10:16;8.97;;;3.80;;
37645;SDS011;23489;49.600;6.138;2023-09-18T04:12:48;7.95;;;3.50;;
37645;SDS011;23489;49.600;6.138;2023-09-18T04:15:16;8.57;;;3.50;;
37645;SDS011;23489;49.600;6.138;2023-09-18T04:17:43;7.05;;;3.00;;
37645;SDS011;23489;49.600;6.138;2023-09-18T04:20:09;8.20;;;3.40;;
37645;SDS011;23489;49.600;6.138;2023-09-18T04:22:36;7.00;;;3.00;;
37645;SDS011;23489;49.600;6.138;2023-09-18T04:25:03;5.03;;;3.00;;
37645;SDS011;23489;49.600;6.138;2023-09-18T04:27:30;9.57;;;3.72;;
37645;SDS011;23489;49.600;6.138;2023-09-18T04:29:56;6.63;;;3.28;;
37645;SDS011;23489;49.600;6.138;2023-09-18T04:32:23;7.20;;;3.42;;
37645;SDS011;23489;49.600;6.138;2023-09-18T04:34:48;6.20;;;2.90;;
37645;SDS011;23489;49.600;6.138;2023-09-18T04:37:14;9.30;;;3.63;;
37645;SDS011;23489;49.600;6.138;2023-09-18T04:39:41;5.68;;;3.08;;
37645;SDS011;23489;49.600;6.138;2023-09-18T04:42:06;6.22;;;2.90;;
37645;SDS011;23489;49.600;6.138;2023-09-18T04:44:33;6.70;;;2.72;;
37645;SDS011;23489;49.600;6.138;2023-09-18T04:46:58;6.27;;;2.40;;
37645;SDS011;23489;49.600;6.138;2023-09-18T04:49:24;4.85;;;2.50;;
37645;SDS011;23489;49.600;6.138;2023-09-18T04:51:50;6.03;;;2.90;;
37645;SDS011;23489;49.600;6.138;2023-09-18T04:54:16;4.72;;;2.40;;
37645;SDS011;23489;49.600;6.138;2023-09-18T04:56:42;5.00;;;2.38;;
37645;SDS011;23489;49.600;6.138;2023-09-18T04:59:07;4.43;;;2.33;;
37645;SDS011;23489;49.600;6.138;2023-09-18T05:01:33;4.93;;;2.30;;
37645;SDS011;23489;49.600;6.138;2023-09-18T05:03:58;5.60;;;2.43;;
37645;SDS011;23489;49.600;6.138;2023-09-18T05:06:25;5.50;;;2.27;;
37645;SDS011;23489;49.600;6.138;2023-09-18T05:08:50;6.40;;;2.40;;
37645;SDS011;23489;49.600;6.138;2023-09-18T05:11:16;4.95;;;2.22;;
37645;SDS011;23489;49.600;6.138;2023-09-18T05:13:43;5.82;;;2.35;;
37645;SDS011;23489;49.600;6.138;2023-09-18T05:16:09;6.75;;;2.40;;
37645;SDS011;23489;49.600;6.138;2023-09-18T05:18:34;4.77;;;1.97;;
37645;SDS011;23489;49.600;6.138;2023-09-18T05:21:01;5.82;;;2.28;;
37645;SDS011;23489;49.600;6.138;2023-09-18T05:23:29;4.93;;;2.43;;
37645;SDS011;23489;49.600;6.138;2023-09-18T05:25:55;4.78;;;2.50;;
37645;SDS011;23489;49.600;6.138;2023-09-18T05:28:20;5.27;;;1.90;;
37645;SDS011;23489;49.600;6.138;2023-09-18T05:30:46;4.00;;;2.07;;
37645;SDS011;23489;49.600;6.138;2023-09-18T05:33:11;4.20;;;1.90;;
37645;SDS011;23489;49.600;6.138;2023-09-18T05:35:41;4.80;;;2.28;;
37645;SDS011;23489;49.600;6.138;2023-09-18T05:38:11;5.20;;;2.40;;
37645;SDS011;23489;49.600;6.138;2023-09-18T05:40:42;5.00;;;2.00;;
37645;SDS011;23489;49.600;6.138;2023-09-18T05:43:10;4.68;;;2.30;;
37645;SDS011;23489;49.600;6.138;2023-09-18T05:45:37;4.27;;;1.97;;
37645;SDS011;23489;49.600;6.138;2023-09-18T05:48:03;5.07;;;2.03;;
37645;SDS011;23489;49.600;6.138;2023-09-18T05:50:32;6.20;;;2.10;;
37645;SDS011;23489;49.600;6.138;2023-09-18T05:52:59;4.43;;;2.10;;
37645;SDS011;23489;49.600;6.138;2023-09-18T05:55:28;4.07;;;1.70;;
37645;SDS011;23489;49.600;6.138;2023-09-18T05:58:00;3.83;;;2.03;;
37645;SDS011;23489;49.600;6.138;2023-09-18T06:00:27;3.00;;;1.60;;
37645;SDS011;23489;49.600;6.138;2023-09-18T06:02:55;5.63;;;1.70;;
